Time;durP1;ratioP1;P1;durP2;ratioP2;P2;SDS_P1;SDS_P2;PMS_P1;PMS_P2;Temp;Humidity;BMP_temperature;BMP_pressure;BME280_temperature;BME280_humidity;BME280_pressure;Samples;Min_cycle;Max_cycle;Signal;HPM_P1;HPM_P2
2021/10/30 00:02:21;;;;;;;4.72;3.85;;;11.90;99.90;;;;;;4858792;29;20491;-78
2021/10/30 00:04:46;;;;;;;3.88;3.30;;;11.90;99.90;;;;;;4860110;29;20021;-77
2021/10/30 00:07:15;;;;;;;6.00;3.42;;;11.90;99.90;;;;;;4859625;29;20077;-77
2021/10/30 00:09:41;;;;;;;3.70;3.35;;;11.80;99.90;;;;;;4858694;29;20021;-77
2021/10/30 00:12:07;;;;;;;3.90;3.50;;;11.80;99.90;;;;;;4857956;29;20484;-77
2021/10/30 00:14:33;;;;;;;8.45;3.88;;;11.80;99.90;;;;;;4858796;29;20029;-77
2021/10/30 00:16:58;;;;;;;4.18;3.75;;;11.70;99.90;;;;;;4859685;29;20037;-77
2021/10/30 00:19:24;;;;;;;4.60;4.20;;;11.70;99.90;;;;;;4859226;29;20030;-77
2021/10/30 00:21:52;;;;;;;4.60;4.15;;;11.70;99.90;;;;;;4859944;29;20049;-77
2021/10/30 00:24:18;;;;;;;4.38;3.80;;;11.70;99.90;;;;;;4858459;29;20030;-77
2021/10/30 00:26:44;;;;;;;10.25;4.30;;;11.70;99.90;;;;;;4858186;29;20108;-78
2021/10/30 00:29:09;;;;;;;5.20;4.32;;;11.60;99.90;;;;;;4873802;29;20166;-78
2021/10/30 00:31:35;;;;;;;5.10;4.40;;;11.60;99.90;;;;;;4859853;29;20522;-77
2021/10/30 00:34:00;;;;;;;10.57;5.47;;;11.60;99.90;;;;;;4857617;29;20487;-78
2021/10/30 00:36:26;;;;;;;6.82;4.93;;;11.60;99.90;;;;;;4858468;29;20034;-77
2021/10/30 00:38:52;;;;;;;7.25;4.60;;;11.60;99.90;;;;;;4858560;29;20025;-76
2021/10/30 00:41:17;;;;;;;5.85;4.68;;;11.50;99.90;;;;;;4857944;29;20543;-77
2021/10/30 00:43:44;;;;;;;5.45;4.95;;;11.50;99.90;;;;;;4859703;29;20022;-77
2021/10/30 00:46:10;;;;;;;5.57;4.90;;;11.50;99.90;;;;;;4860754;29;20069;-77
2021/10/30 00:48:35;;;;;;;9.20;4.47;;;11.50;99.90;;;;;;4876636;29;20033;-76
2021/10/30 00:51:03;;;;;;;5.43;4.72;;;11.40;99.90;;;;;;4862919;29;20494;-77
2021/10/30 00:53:31;;;;;;;7.03;4.60;;;11.40;99.90;;;;;;4863059;29;20025;-77
2021/10/30 00:56:00;;;;;;;5.25;4.22;;;11.40;99.90;;;;;;4862169;29;20025;-76
2021/10/30 00:58:33;;;;;;;5.53;4.22;;;11.40;99.90;;;;;;4862801;29;20045;-76
2021/10/30 01:00:59;;;;;;;4.53;4.13;;;11.40;99.90;;;;;;4861414;29;20025;-76
2021/10/30 01:03:25;;;;;;;7.03;4.72;;;11.40;99.90;;;;;;4862595;29;20030;-77
2021/10/30 01:05:51;;;;;;;4.90;4.43;;;11.30;99.90;;;;;;4862940;29;20030;-76
2021/10/30 01:08:18;;;;;;;5.28;4.15;;;11.30;99.90;;;;;;4860567;29;20501;-77
2021/10/30 01:10:45;;;;;;;5.63;4.82;;;11.30;99.90;;;;;;4861485;29;20121;-77
2021/10/30 01:13:11;;;;;;;7.38;4.90;;;11.30;99.90;;;;;;4861072;29;20048;-77
2021/10/30 01:15:36;;;;;;;8.07;4.78;;;11.20;99.90;;;;;;4860801;29;20419;-76
2021/10/30 01:18:05;;;;;;;6.35;5.57;;;11.20;99.90;;;;;;4862205;29;20487;-77
2021/10/30 01:20:30;;;;;;;7.15;4.78;;;11.20;99.90;;;;;;4862505;29;20112;-76
2021/10/30 01:22:58;;;;;;;9.32;4.93;;;11.20;99.90;;;;;;4860445;29;20165;-77
2021/10/30 01:25:23;;;;;;;6.40;5.25;;;11.20;99.90;;;;;;4861381;29;20022;-77
2021/10/30 01:27:51;;;;;;;9.15;5.78;;;11.10;99.90;;;;;;4861049;29;20040;-77
2021/10/30 01:30:18;;;;;;;5.78;5.18;;;11.10;99.90;;;;;;4861514;29;20411;-77
2021/10/30 01:32:55;;;;;;;6.50;5.28;;;11.10;99.90;;;;;;4861063;29;20049;-77
2021/10/30 01:35:29;;;;;;;5.82;4.78;;;11.00;99.90;;;;;;4861154;29;20034;-76
2021/10/30 01:37:56;;;;;;;6.88;5.03;;;11.00;99.90;;;;;;4860481;29;20034;-77
2021/10/30 01:40:23;;;;;;;6.25;5.65;;;11.00;99.90;;;;;;4861164;29;20057;-77
2021/10/30 01:43:00;;;;;;;7.85;5.40;;;11.00;99.90;;;;;;4862178;29;20109;-77
2021/10/30 01:45:27;;;;;;;5.97;5.38;;;11.00;99.90;;;;;;4861521;29;20465;-77
2021/10/30 01:47:53;;;;;;;5.40;4.90;;;11.00;99.90;;;;;;4862310;29;20379;-77
2021/10/30 01:50:19;;;;;;;5.68;5.18;;;10.90;99.90;;;;;;4861645;29;20087;-76
2021/10/30 01:52:45;;;;;;;6.05;5.30;;;10.90;99.90;;;;;;4860714;29;20546;-77
2021/10/30 01:55:13;;;;;;;6.55;5.95;;;10.90;99.90;;;;;;4860523;29;20082;-77
2021/10/30 01:57:39;;;;;;;8.40;6.03;;;10.90;99.90;;;;;;4860178;29;20033;-77
2021/10/30 02:00:07;;;;;;;7.68;5.53;;;10.80;99.90;;;;;;4861521;29;20068;-77
2021/10/30 02:02:32;;;;;;;5.90;5.18;;;10.80;99.90;;;;;;4860643;29;20033;-77
2021/10/30 02:04:58;;;;;;;7.57;5.68;;;10.80;99.90;;;;;;4875225;29;20033;-77
2021/10/30 02:07:23;;;;;;;6.25;5.65;;;10.80;99.90;;;;;;4861711;29;20194;-76
2021/10/30 02:09:49;;;;;;;8.23;5.97;;;10.80;99.90;;;;;;4861654;29;20033;-77
2021/10/30 02:12:15;;;;;;;9.35;5.57;;;10.70;99.90;;;;;;4875073;29;20041;-77
2021/10/30 02:14:41;;;;;;;8.38;6.10;;;10.70;99.90;;;;;;4860621;29;20041;-77
2021/10/30 02:17:07;;;;;;;8.38;6.22;;;10.70;99.90;;;;;;4860425;29;20030;-77
2021/10/30 02:19:32;;;;;;;9.20;6.07;;;10.70;99.90;;;;;;4860846;29;20034;-77
2021/10/30 02:21:58;;;;;;;8.90;6.28;;;10.70;99.90;;;;;;4861408;29;20055;-77
2021/10/30 02:24:23;;;;;;;6.75;5.95;;;10.70;99.90;;;;;;4860316;29;20030;-77
2021/10/30 02:26:49;;;;;;;10.38;6.68;;;10.70;99.90;;;;;;4859543;29;20029;-77
2021/10/30 02:29:16;;;;;;;6.85;6.15;;;10.70;99.90;;;;;;4860858;29;20627;-77
2021/10/30 02:31:42;;;;;;;6.95;6.20;;;10.70;99.90;;;;;;4861349;29;20033;-77
2021/10/30 02:34:07;;;;;;;6.72;6.00;;;10.70;99.90;;;;;;4860447;29;20364;-76
2021/10/30 02:36:33;;;;;;;9.07;5.82;;;10.70;99.90;;;;;;4860034;29;20033;-77
2021/10/30 02:38:59;;;;;;;5.82;5.22;;;10.80;99.90;;;;;;4860988;29;20022;-77
2021/10/30 02:41:25;;;;;;;8.70;6.28;;;10.80;99.90;;;;;;4860700;29;20082;-76
2021/10/30 02:43:50;;;;;;;7.07;5.38;;;10.90;99.90;;;;;;4861179;29;20032;-76
2021/10/30 02:46:16;;;;;;;6.28;5.43;;;10.90;99.90;;;;;;4875136;29;20025;-77
2021/10/30 02:48:42;;;;;;;6.07;5.03;;;10.90;99.90;;;;;;4860264;29;20085;-76
2021/10/30 02:51:07;;;;;;;6.63;5.15;;;11.00;99.90;;;;;;4860857;29;20044;-77
2021/10/30 02:53:33;;;;;;;7.13;5.35;;;11.00;99.90;;;;;;4861088;29;20021;-76
2021/10/30 02:55:58;;;;;;;5.35;4.60;;;11.00;99.90;;;;;;4858861;29;20037;-76
2021/10/30 02:58:24;;;;;;;5.70;5.03;;;11.00;99.90;;;;;;4859639;29;20089;-77
2021/10/30 03:00:49;;;;;;;7.22;5.80;;;11.10;99.90;;;;;;4860114;29;20029;-77
2021/10/30 03:03:15;;;;;;;7.88;4.50;;;11.00;99.90;;;;;;4860622;29;20033;-77
2021/10/30 03:05:41;;;;;;;5.75;4.93;;;11.10;99.90;;;;;;4860833;29;20037;-77
2021/10/30 03:08:09;;;;;;;4.93;4.40;;;11.10;99.90;;;;;;4858727;29;20030;-77
2021/10/30 03:10:35;;;;;;;5.47;4.53;;;11.10;99.90;;;;;;4860626;29;20113;-76
2021/10/30 03:13:01;;;;;;;5.50;4.47;;;11.10;99.90;;;;;;4860263;29;20475;-76
2021/10/30 03:15:26;;;;;;;5.07;4.40;;;11.10;99.90;;;;;;4859870;29;20416;-76
2021/10/30 03:17:52;;;;;;;6.30;4.25;;;11.20;99.90;;;;;;4859277;29;20113;-76
2021/10/30 03:20:18;;;;;;;4.53;4.13;;;11.20;99.90;;;;;;4857837;29;20140;-76
2021/10/30 03:22:44;;;;;;;8.93;5.15;;;11.20;99.90;;;;;;4860605;29;20034;-76
2021/10/30 03:25:10;;;;;;;5.80;4.90;;;11.30;99.90;;;;;;4859053;29;20493;-76
2021/10/30 03:27:36;;;;;;;5.10;4.60;;;11.30;99.90;;;;;;4859777;29;20487;-76
2021/10/30 03:30:06;;;;;;;5.65;5.15;;;11.30;99.90;;;;;;4860123;29;20071;-76
2021/10/30 03:32:32;;;;;;;5.45;4.95;;;11.30;99.90;;;;;;4860357;29;20041;-76
2021/10/30 03:34:58;;;;;;;6.32;5.38;;;11.30;99.90;;;;;;4859456;29;20404;-76
2021/10/30 03:37:25;;;;;;;5.30;4.65;;;11.40;99.90;;;;;;4860390;29;20037;-78
2021/10/30 03:39:52;;;;;;;5.10;4.60;;;11.40;99.90;;;;;;4859222;29;20112;-78
2021/10/30 03:42:18;;;;;;;6.70;5.25;;;11.40;99.90;;;;;;4859458;29;20026;-77
2021/10/30 03:44:43;;;;;;;5.68;5.07;;;11.40;99.90;;;;;;4858906;29;20094;-77
2021/10/30 03:47:09;;;;;;;5.55;4.78;;;11.40;99.90;;;;;;4859981;29;20040;-77
2021/10/30 03:49:35;;;;;;;5.03;4.53;;;11.40;99.90;;;;;;4858422;29;20036;-77
2021/10/30 03:52:00;;;;;;;5.57;4.97;;;11.40;99.90;;;;;;4860035;29;20116;-76
2021/10/30 03:54:26;;;;;;;6.03;5.43;;;11.40;99.90;;;;;;4860211;29;20026;-76
2021/10/30 03:56:51;;;;;;;8.10;5.40;;;11.40;99.90;;;;;;4859987;29;20537;-75
2021/10/30 03:59:17;;;;;;;6.60;5.47;;;11.40;99.90;;;;;;4859719;29;20408;-76
2021/10/30 04:01:43;;;;;;;6.40;5.30;;;11.40;99.90;;;;;;4874209;29;20029;-77
2021/10/30 04:04:09;;;;;;;5.85;5.30;;;11.40;99.90;;;;;;4858196;29;20037;-76
2021/10/30 04:06:35;;;;;;;7.00;5.47;;;11.40;99.90;;;;;;4859989;29;20108;-77
2021/10/30 04:09:00;;;;;;;6.72;5.75;;;11.40;99.90;;;;;;4859673;29;20459;-77
2021/10/30 04:11:26;;;;;;;7.88;6.05;;;11.40;99.90;;;;;;4858192;29;20073;-76
2021/10/30 04:13:51;;;;;;;8.00;6.70;;;11.50;99.90;;;;;;4858807;29;20025;-78
2021/10/30 04:16:17;;;;;;;9.52;6.75;;;11.50;99.90;;;;;;4873216;29;20037;-78
2021/10/30 04:18:44;;;;;;;9.38;7.30;;;11.60;99.90;;;;;;4859763;29;20021;-78
2021/10/30 04:21:11;;;;;;;8.05;6.78;;;11.60;99.90;;;;;;4875387;29;20104;-78
2021/10/30 04:23:37;;;;;;;8.50;7.60;;;11.70;99.90;;;;;;4861764;29;20042;-78
2021/10/30 04:26:04;;;;;;;7.93;7.10;;;11.70;99.90;;;;;;4863501;29;20032;-78
2021/10/30 04:28:29;;;;;;;10.98;7.55;;;11.70;99.90;;;;;;4863501;29;20053;-78
2021/10/30 04:30:58;;;;;;;8.07;7.28;;;11.70;99.90;;;;;;4877124;29;20081;-78
2021/10/30 04:33:23;;;;;;;8.10;7.30;;;11.70;99.90;;;;;;4862375;29;20028;-78
2021/10/30 04:35:49;;;;;;;10.02;7.72;;;11.70;99.90;;;;;;4863399;29;20029;-78
2021/10/30 04:38:14;;;;;;;11.95;8.60;;;11.70;99.90;;;;;;4861238;29;20470;-78
2021/10/30 04:40:40;;;;;;;9.77;8.30;;;11.80;99.90;;;;;;4863280;29;20021;-77
2021/10/30 04:43:06;;;;;;;9.43;8.20;;;11.80;99.90;;;;;;4863121;29;20395;-77
2021/10/30 04:45:32;;;;;;;11.52;9.30;;;11.80;99.90;;;;;;4862646;29;20033;-78
2021/10/30 04:47:58;;;;;;;9.98;8.95;;;11.80;99.90;;;;;;4861893;29;20368;-76
2021/10/30 04:50:23;;;;;;;11.25;8.75;;;11.80;99.90;;;;;;4862008;29;20090;-78
2021/10/30 04:52:49;;;;;;;11.35;9.75;;;11.80;99.90;;;;;;4861152;29;20056;-78
2021/10/30 04:55:14;;;;;;;10.75;9.25;;;11.80;99.90;;;;;;4861744;29;20385;-76
2021/10/30 04:57:40;;;;;;;12.43;9.02;;;11.80;99.90;;;;;;4862780;29;20033;-76
2021/10/30 05:00:06;;;;;;;11.38;8.85;;;11.80;99.90;;;;;;4861888;29;20025;-76
2021/10/30 05:02:32;;;;;;;8.90;8.00;;;11.80;99.90;;;;;;4862614;29;20029;-78
2021/10/30 05:04:57;;;;;;;8.65;7.85;;;11.80;99.90;;;;;;4861424;29;20036;-76
2021/10/30 05:07:23;;;;;;;13.70;9.63;;;11.80;99.90;;;;;;4860962;29;20037;-78
2021/10/30 05:09:48;;;;;;;11.10;9.02;;;11.90;99.90;;;;;;4862916;29;20025;-77
2021/10/30 05:12:14;;;;;;;13.70;9.15;;;11.80;99.90;;;;;;4861342;29;20097;-77
2021/10/30 05:14:40;;;;;;;9.80;8.85;;;11.80;99.90;;;;;;4860749;29;20029;-76
2021/10/30 05:17:05;;;;;;;9.18;8.15;;;11.90;99.90;;;;;;4862446;29;20030;-76
2021/10/30 05:19:31;;;;;;;12.98;9.00;;;11.90;99.90;;;;;;4860642;29;20071;-75
2021/10/30 05:21:56;;;;;;;10.55;8.80;;;11.80;99.90;;;;;;4862482;29;20040;-75
2021/10/30 05:24:22;;;;;;;10.15;8.63;;;11.90;99.90;;;;;;4861313;29;20029;-75
2021/10/30 05:26:47;;;;;;;12.60;8.38;;;11.90;99.90;;;;;;4862041;29;20038;-74
2021/10/30 05:29:13;;;;;;;9.73;8.32;;;11.90;99.90;;;;;;4860693;29;20566;-75
2021/10/30 05:31:39;;;;;;;14.35;9.15;;;11.90;99.90;;;;;;4861002;29;20037;-76
2021/10/30 05:34:04;;;;;;;11.52;9.10;;;11.90;99.90;;;;;;4860688;29;20394;-76
2021/10/30 05:36:32;;;;;;;10.02;9.02;;;11.90;99.90;;;;;;4862318;29;20364;-76
2021/10/30 05:38:58;;;;;;;11.27;9.13;;;11.90;99.90;;;;;;4862026;29;20368;-77
2021/10/30 05:41:25;;;;;;;9.95;8.43;;;11.90;99.90;;;;;;4861972;29;20229;-75
2021/10/30 05:43:51;;;;;;;17.05;8.45;;;11.90;99.90;;;;;;4862401;29;20541;-76
2021/10/30 05:46:17;;;;;;;11.85;8.95;;;11.90;99.90;;;;;;4862066;29;20109;-76
2021/10/30 05:48:43;;;;;;;12.57;8.18;;;11.90;99.90;;;;;;4861307;29;20065;-76
2021/10/30 05:51:09;;;;;;;10.25;8.43;;;11.90;99.90;;;;;;4860923;29;20029;-76
2021/10/30 05:53:34;;;;;;;11.43;7.97;;;11.90;99.90;;;;;;4860622;29;20044;-76
2021/10/30 05:56:00;;;;;;;10.57;8.18;;;11.90;99.90;;;;;;4861346;29;20069;-77
2021/10/30 05:58:26;;;;;;;9.23;7.93;;;12.00;99.90;;;;;;4860429;29;20068;-76
2021/10/30 06:00:51;;;;;;;11.63;7.78;;;11.90;99.90;;;;;;4860927;29;20018;-76
2021/10/30 06:03:17;;;;;;;13.93;8.02;;;11.90;99.90;;;;;;4859757;29;20033;-76
2021/10/30 06:05:42;;;;;;;8.98;7.43;;;11.90;99.90;;;;;;4861857;29;20025;-76
2021/10/30 06:08:08;;;;;;;10.30;7.25;;;11.90;99.90;;;;;;4861480;29;20348;-76
2021/10/30 06:10:34;;;;;;;11.82;7.43;;;11.90;99.90;;;;;;4862807;29;20050;-76
2021/10/30 06:13:00;;;;;;;9.15;7.20;;;11.90;99.90;;;;;;4870578;29;20108;-75
2021/10/30 06:15:26;;;;;;;9.25;7.90;;;12.00;99.90;;;;;;4877657;29;20074;-75
2021/10/30 06:17:51;;;;;;;9.07;7.35;;;11.90;99.90;;;;;;4878242;29;20040;-77
2021/10/30 06:20:17;;;;;;;10.43;7.93;;;12.00;99.90;;;;;;4874478;29;20491;-77
2021/10/30 06:22:42;;;;;;;9.63;7.78;;;11.90;99.90;;;;;;4866067;29;20143;-77
2021/10/30 06:25:13;;;;;;;11.05;7.80;;;12.00;99.90;;;;;;4867794;29;20034;-75
2021/10/30 06:27:39;;;;;;;10.82;8.27;;;12.00;99.90;;;;;;4868443;29;20037;-74
2021/10/30 06:30:10;;;;;;;11.45;8.20;;;12.00;99.90;;;;;;4874270;29;20093;-75
2021/10/30 06:32:36;;;;;;;9.23;8.30;;;12.00;99.90;;;;;;4867684;29;20048;-76
2021/10/30 06:35:03;;;;;;;11.15;8.32;;;12.00;99.90;;;;;;4877835;29;20021;-75
2021/10/30 06:37:28;;;;;;;9.52;8.35;;;12.00;99.90;;;;;;4859914;29;20034;-75
2021/10/30 06:39:54;;;;;;;13.98;8.80;;;12.00;99.90;;;;;;4859681;29;20045;-78
2021/10/30 06:42:19;;;;;;;15.10;8.95;;;12.10;99.90;;;;;;4860773;29;20368;-75
2021/10/30 06:44:45;;;;;;;10.85;8.90;;;12.00;99.90;;;;;;4862554;29;20479;-75
2021/10/30 06:47:12;;;;;;;12.45;8.60;;;12.10;99.90;;;;;;4859700;29;20025;-74
2021/10/30 06:49:38;;;;;;;9.40;8.38;;;12.10;99.90;;;;;;4870611;29;20394;-75
2021/10/30 06:52:06;;;;;;;12.45;7.70;;;12.10;99.90;;;;;;4877525;29;20032;-76
2021/10/30 06:54:31;;;;;;;8.88;7.95;;;12.10;99.90;;;;;;4879551;29;20029;-76
2021/10/30 06:56:57;;;;;;;9.48;7.20;;;12.10;99.90;;;;;;4879269;29;20029;-75
2021/10/30 06:59:23;;;;;;;9.30;6.95;;;12.10;99.90;;;;;;4877321;29;20081;-76
2021/10/30 07:01:48;;;;;;;10.50;7.38;;;12.20;99.90;;;;;;4877754;29;20497;-75
2021/10/30 07:04:14;;;;;;;8.57;6.90;;;12.20;99.90;;;;;;4874832;29;20031;-78
2021/10/30 07:06:40;;;;;;;12.93;7.45;;;12.20;99.90;;;;;;4868552;29;20036;-77
2021/10/30 07:09:05;;;;;;;7.75;6.95;;;12.20;99.90;;;;;;4883812;29;20029;-78
2021/10/30 07:11:31;;;;;;;9.15;7.13;;;12.20;99.90;;;;;;4882906;29;20045;-76
2021/10/30 07:13:57;;;;;;;10.60;7.57;;;12.20;99.90;;;;;;4876470;29;20344;-77
2021/10/30 07:16:24;;;;;;;9.20;7.85;;;12.20;99.90;;;;;;4872541;29;20060;-79
2021/10/30 07:18:50;;;;;;;10.10;8.23;;;12.20;99.90;;;;;;4869953;29;20032;-76
2021/10/30 07:21:16;;;;;;;8.75;7.85;;;12.20;99.90;;;;;;4870189;29;20136;-78
2021/10/30 07:23:42;;;;;;;9.60;7.97;;;12.20;99.90;;;;;;4874146;29;20455;-78
2021/10/30 07:26:07;;;;;;;9.10;7.57;;;12.20;99.90;;;;;;4866373;29;20036;-78
2021/10/30 07:28:33;;;;;;;9.00;7.68;;;12.30;99.90;;;;;;4877472;29;20086;-78
2021/10/30 07:30:59;;;;;;;8.73;7.55;;;12.30;99.90;;;;;;4876464;29;20037;-78
2021/10/30 07:33:24;;;;;;;11.02;8.07;;;12.30;99.90;;;;;;4876741;29;20152;-76
2021/10/30 07:35:50;;;;;;;10.38;7.68;;;12.30;99.90;;;;;;4878011;29;20107;-76
2021/10/30 07:38:16;;;;;;;9.70;8.00;;;12.30;99.90;;;;;;4873710;29;20029;-81
2021/10/30 07:40:42;;;;;;;12.07;7.88;;;12.30;99.90;;;;;;4876889;29;20083;-79
2021/10/30 07:43:07;;;;;;;11.80;8.23;;;12.30;99.90;;;;;;4871203;29;20025;-79
2021/10/30 07:45:34;;;;;;;8.48;7.45;;;12.30;99.90;;;;;;4873564;29;20032;-84
2021/10/30 07:48:00;;;;;;;9.38;7.82;;;12.30;99.90;;;;;;4876360;29;20426;-88
2021/10/30 07:50:29;;;;;;;8.63;6.90;;;12.30;99.90;;;;;;4875297;29;20371;-81
2021/10/30 07:52:59;;;;;;;6.72;6.10;;;12.40;99.90;;;;;;4877731;29;20029;-85
2021/10/30 07:55:24;;;;;;;9.13;7.00;;;12.40;99.90;;;;;;4875355;29;20029;-80
2021/10/30 07:57:50;;;;;;;13.35;7.30;;;12.40;99.90;;;;;;4875723;29;20056;-81
2021/10/30 08:00:15;;;;;;;7.38;6.00;;;12.40;99.90;;;;;;4876133;29;20032;-82
2021/10/30 08:02:43;;;;;;;11.50;7.20;;;12.40;99.90;;;;;;4876394;29;20394;-83
2021/10/30 08:05:10;;;;;;;8.18;6.60;;;12.40;99.90;;;;;;4864294;29;20069;-75
2021/10/30 08:07:36;;;;;;;8.73;6.40;;;12.40;99.90;;;;;;4874678;29;20064;-78
2021/10/30 08:10:04;;;;;;;6.95;6.03;;;12.40;99.90;;;;;;4856865;29;20054;-74
2021/10/30 08:12:30;;;;;;;9.43;6.10;;;12.50;99.90;;;;;;4859855;29;20109;-74
2021/10/30 08:14:55;;;;;;;7.22;6.18;;;12.50;99.90;;;;;;4860543;29;20070;-74
2021/10/30 08:17:21;;;;;;;8.45;6.22;;;12.50;99.90;;;;;;4874653;29;20072;-78
2021/10/30 08:19:46;;;;;;;8.80;6.05;;;12.60;99.90;;;;;;4876216;29;20057;-73
2021/10/30 08:22:12;;;;;;;8.10;6.00;;;12.60;99.90;;;;;;4878123;29;20078;-76
2021/10/30 08:24:38;;;;;;;6.95;6.03;;;12.60;99.90;;;;;;4877757;29;20538;-74
2021/10/30 08:27:04;;;;;;;6.47;5.22;;;12.60;99.90;;;;;;4876954;29;20033;-74
2021/10/30 08:29:30;;;;;;;7.03;5.68;;;12.60;99.90;;;;;;4868179;29;20034;-73
2021/10/30 08:31:56;;;;;;;6.78;5.43;;;12.60;99.90;;;;;;4876829;29;20044;-73
2021/10/30 08:34:21;;;;;;;6.07;5.47;;;12.60;99.90;;;;;;4871580;29;20029;-74
2021/10/30 08:36:47;;;;;;;6.15;5.35;;;12.60;99.90;;;;;;4872582;29;20039;-75
2021/10/30 08:39:13;;;;;;;7.28;5.18;;;12.70;99.90;;;;;;4873458;29;20038;-75
2021/10/30 08:41:39;;;;;;;5.28;4.72;;;12.70;99.90;;;;;;4876038;29;20039;-76
2021/10/30 08:44:04;;;;;;;5.82;5.10;;;12.70;99.90;;;;;;4875228;29;20395;-76
2021/10/30 08:46:31;;;;;;;5.90;5.22;;;12.70;99.90;;;;;;4864525;29;20552;-82
2021/10/30 08:49:01;;;;;;;6.25;5.20;;;12.70;99.90;;;;;;4859466;29;20041;-86
2021/10/30 08:51:28;;;;;;;5.57;4.97;;;12.70;99.90;;;;;;4858888;29;20033;-79
2021/10/30 08:53:54;;;;;;;5.97;5.38;;;12.80;99.90;;;;;;4858175;29;20025;-78
2021/10/30 08:56:22;;;;;;;7.13;4.90;;;12.80;99.90;;;;;;4858214;29;20364;-79
2021/10/30 08:58:48;;;;;;;6.63;5.43;;;12.80;99.90;;;;;;4857703;29;20060;-79
2021/10/30 09:01:13;;;;;;;6.68;4.70;;;12.80;99.90;;;;;;4859394;29;20033;-79
2021/10/30 09:03:41;;;;;;;8.85;5.22;;;12.80;99.90;;;;;;4859421;29;20113;-79
2021/10/30 09:06:07;;;;;;;5.90;5.30;;;12.80;99.90;;;;;;4857538;29;20493;-79
2021/10/30 09:08:33;;;;;;;5.28;4.72;;;12.90;99.90;;;;;;4861262;29;20057;-77
2021/10/30 09:11:11;;;;;;;5.28;4.68;;;12.90;99.90;;;;;;4862502;29;20052;-77
2021/10/30 09:13:37;;;;;;;7.40;5.05;;;12.90;99.90;;;;;;4860805;29;20030;-78
2021/10/30 09:16:04;;;;;;;6.97;4.30;;;12.90;99.90;;;;;;4862544;29;20475;-78
2021/10/30 09:18:36;;;;;;;6.57;5.10;;;13.00;99.90;;;;;;4861564;29;20504;-78
2021/10/30 09:21:12;;;;;;;7.43;4.57;;;13.00;99.90;;;;;;4861289;29;20036;-78
2021/10/30 09:23:40;;;;;;;5.88;4.72;;;13.00;99.90;;;;;;4862667;29;20025;-78
2021/10/30 09:26:10;;;;;;;7.93;4.65;;;13.00;99.90;;;;;;4861623;29;20479;-78
2021/10/30 09:28:42;;;;;;;6.45;4.35;;;13.00;99.90;;;;;;4862423;29;20025;-77
2021/10/30 09:31:10;;;;;;;6.13;4.80;;;13.00;99.90;;;;;;4861155;29;20372;-77
2021/10/30 09:33:55;;;;;;;8.88;5.18;;;13.00;99.90;;;;;;4861698;29;20025;-78
2021/10/30 09:36:27;;;;;;;5.22;4.63;;;13.00;99.90;;;;;;4861225;29;20498;-78
2021/10/30 09:38:55;;;;;;;5.63;4.40;;;13.10;99.90;;;;;;4861330;29;20021;-78
2021/10/30 09:41:29;;;;;;;6.25;4.13;;;13.10;99.90;;;;;;4860382;29;20026;-77
2021/10/30 09:43:57;;;;;;;6.10;4.60;;;13.10;99.90;;;;;;4860998;29;20108;-76
2021/10/30 09:46:24;;;;;;;5.00;4.50;;;13.10;99.90;;;;;;4861003;29;20033;-76
2021/10/30 09:48:50;;;;;;;6.07;4.50;;;13.10;99.90;;;;;;4860102;29;20026;-77
2021/10/30 09:51:35;;;;;;;4.88;4.38;;;13.20;99.90;;;;;;4860574;29;20049;-76
2021/10/30 09:54:05;;;;;;;5.93;4.40;;;13.20;99.90;;;;;;4861117;29;20096;-77
2021/10/30 09:56:42;;;;;;;4.55;3.92;;;13.20;99.90;;;;;;4860803;29;20478;-76
2021/10/30 09:59:09;;;;;;;5.00;4.05;;;13.20;99.90;;;;;;4861608;29;20045;-77
2021/10/30 10:01:35;;;;;;;5.75;4.07;;;13.30;99.90;;;;;;4861238;29;20029;-76
2021/10/30 10:04:01;;;;;;;5.28;3.83;;;13.30;99.90;;;;;;4860625;29;20436;-77
2021/10/30 10:06:30;;;;;;;6.28;3.92;;;13.30;99.90;;;;;;4860361;29;20116;-77
2021/10/30 10:08:56;;;;;;;6.13;3.83;;;13.30;99.90;;;;;;4860834;29;20037;-76
2021/10/30 10:11:23;;;;;;;5.45;4.28;;;13.20;99.90;;;;;;4860526;29;20060;-78
2021/10/30 10:13:49;;;;;;;6.32;3.88;;;13.30;99.90;;;;;;4860511;29;20025;-77
2021/10/30 10:16:19;;;;;;;5.35;4.03;;;13.30;99.90;;;;;;4860660;29;20486;-77
2021/10/30 10:18:53;;;;;;;4.95;4.22;;;13.30;99.90;;;;;;4859677;29;20032;-77
2021/10/30 10:21:26;;;;;;;5.25;4.20;;;13.30;99.90;;;;;;4861402;29;20025;-77
2021/10/30 10:23:52;;;;;;;5.05;4.03;;;13.30;99.90;;;;;;4859712;29;20432;-77
2021/10/30 10:26:17;;;;;;;5.13;4.35;;;13.40;99.90;;;;;;4861269;29;20108;-76
2021/10/30 10:28:43;;;;;;;4.40;4.00;;;13.40;99.90;;;;;;4861526;29;20453;-76
2021/10/30 10:31:25;;;;;;;5.75;4.50;;;13.40;99.90;;;;;;4859336;29;20399;-76
2021/10/30 10:34:16;;;;;;;7.07;4.45;;;13.40;99.90;;;;;;4860058;29;20025;-76
2021/10/30 10:36:42;;;;;;;4.38;3.97;;;13.50;99.90;;;;;;4860679;29;20486;-76
2021/10/30 10:39:10;;;;;;;5.53;4.30;;;13.50;99.90;;;;;;4860047;29;20140;-76
2021/10/30 10:41:44;;;;;;;4.93;4.43;;;13.50;99.90;;;;;;4861282;29;20069;-76
2021/10/30 10:44:12;;;;;;;4.85;4.25;;;13.50;99.90;;;;;;4859080;29;20033;-77
2021/10/30 10:46:40;;;;;;;4.45;3.67;;;13.50;99.90;;;;;;4859868;29;20061;-76
2021/10/30 10:49:32;;;;;;;4.63;3.92;;;13.60;99.90;;;;;;4860687;29;20068;-75
2021/10/30 10:52:06;;;;;;;5.20;4.10;;;13.60;99.90;;;;;;4860162;29;20029;-76
2021/10/30 10:57:24;;;;;;;6.60;4.18;;;13.50;99.90;;;;;;4860113;29;20523;-76
2021/10/30 11:00:09;;;;;;;5.72;4.70;;;13.50;99.90;;;;;;4860817;29;20503;-78
2021/10/30 11:02:40;;;;;;;5.78;4.03;;;13.60;99.90;;;;;;4860839;29;20061;-76
2021/10/30 11:05:09;;;;;;;4.87;4.33;;;13.60;99.90;;;;;;4858726;29;20057;-77
2021/10/30 11:07:58;;;;;;;7.13;4.10;;;13.60;99.90;;;;;;4859781;29;20444;-77
2021/10/30 11:10:34;;;;;;;6.93;4.68;;;13.60;99.90;;;;;;4859547;29;20064;-77
2021/10/30 11:15:30;;;;;;;4.88;4.20;;;13.70;99.90;;;;;;4860935;29;20125;-77
2021/10/30 11:18:02;;;;;;;5.47;3.67;;;13.60;99.90;;;;;;4860733;29;20022;-75
2021/10/30 11:20:38;;;;;;;4.28;3.70;;;13.60;99.90;;;;;;4858619;29;20030;-77
2021/10/30 11:23:14;;;;;;;9.43;4.22;;;13.70;99.90;;;;;;4860362;29;20028;-77
2021/10/30 11:25:39;;;;;;;5.40;3.78;;;13.70;99.90;;;;;;4858699;29;20033;-77
2021/10/30 11:28:05;;;;;;;7.93;4.15;;;13.70;99.90;;;;;;4859181;29;20026;-77
2021/10/30 11:30:43;;;;;;;4.53;3.85;;;13.70;99.90;;;;;;4859474;29;20041;-78
2021/10/30 11:33:21;;;;;;;3.95;3.55;;;13.70;99.90;;;;;;4858361;29;20486;-78
2021/10/30 11:36:09;;;;;;;4.57;3.60;;;13.70;99.90;;;;;;4859235;29;20479;-78
2021/10/30 11:38:37;;;;;;;4.53;3.85;;;13.80;99.90;;;;;;4859677;29;20030;-77
2021/10/30 11:41:06;;;;;;;6.45;3.88;;;13.80;99.90;;;;;;4873771;29;20056;-78
2021/10/30 11:43:34;;;;;;;5.78;3.88;;;13.80;99.90;;;;;;4877474;29;20482;-77
2021/10/30 11:46:02;;;;;;;5.78;3.20;;;13.80;99.90;;;;;;4878610;29;20458;-77
2021/10/30 11:48:47;;;;;;;5.57;3.72;;;13.90;99.90;;;;;;4876089;29;20036;-74
2021/10/30 11:51:19;;;;;;;6.22;3.67;;;13.90;99.90;;;;;;4872452;29;20040;-75
2021/10/30 11:53:46;;;;;;;5.03;3.30;;;13.90;99.90;;;;;;4867362;29;20104;-79
2021/10/30 11:56:13;;;;;;;3.80;3.30;;;13.90;99.90;;;;;;4869845;29;20069;-74
2021/10/30 11:58:44;;;;;;;5.88;3.60;;;14.00;99.90;;;;;;4873720;29;20048;-74
2021/10/30 12:01:30;;;;;;;4.55;3.45;;;14.00;99.90;;;;;;4871754;29;20481;-74
2021/10/30 12:03:57;;;;;;;3.72;3.38;;;14.10;99.90;;;;;;4870691;29;20125;-75
2021/10/30 12:06:27;;;;;;;4.90;3.97;;;14.10;99.90;;;;;;4856634;29;20030;-75
2021/10/30 12:08:56;;;;;;;4.45;3.50;;;14.20;99.90;;;;;;4869865;29;20073;-74
2021/10/30 12:11:21;;;;;;;3.47;3.08;;;14.20;99.90;;;;;;4873531;29;20093;-74
2021/10/30 12:13:55;;;;;;;3.22;2.88;;;14.20;99.90;;;;;;4874485;29;20029;-74
2021/10/30 12:16:21;;;;;;;5.03;3.40;;;14.30;99.90;;;;;;4873163;29;20033;-74
2021/10/30 12:18:46;;;;;;;4.07;3.38;;;14.30;99.90;;;;;;4873386;29;20041;-75
2021/10/30 12:21:14;;;;;;;4.05;3.20;;;14.30;99.90;;;;;;4872296;29;20446;-74
2021/10/30 12:23:58;;;;;;;3.95;3.33;;;14.30;99.90;;;;;;4872734;29;20033;-74
2021/10/30 12:26:34;;;;;;;3.00;2.80;;;14.40;99.90;;;;;;4872323;29;20062;-73
2021/10/30 12:29:16;;;;;;;8.43;4.28;;;14.50;99.90;;;;;;4872799;29;20033;-73
2021/10/30 12:32:00;;;;;;;3.60;3.20;;;14.50;99.90;;;;;;4856651;29;20038;-75
2021/10/30 12:34:26;;;;;;;4.63;3.22;;;14.50;99.90;;;;;;4872537;29;20053;-74
2021/10/30 12:36:55;;;;;;;4.13;3.28;;;14.60;99.90;;;;;;4871930;29;20036;-74
2021/10/30 12:39:21;;;;;;;3.40;2.88;;;14.60;99.90;;;;;;4874715;29;20029;-74
2021/10/30 12:42:07;;;;;;;4.93;3.78;;;14.70;99.90;;;;;;4873261;29;20066;-73
2021/10/30 12:44:38;;;;;;;4.20;3.38;;;14.70;99.90;;;;;;4875733;29;20036;-73
2021/10/30 12:47:12;;;;;;;4.72;3.30;;;14.70;99.90;;;;;;4869085;29;20033;-73
2021/10/30 12:49:38;;;;;;;4.60;3.25;;;14.70;99.90;;;;;;4871108;29;20026;-74
2021/10/30 12:52:13;;;;;;;4.10;3.20;;;14.70;99.90;;;;;;4873432;29;20072;-74
2021/10/30 12:54:54;;;;;;;5.78;3.55;;;14.80;99.90;;;;;;4862785;29;20025;-74